Time;durP1;ratioP1;P1;durP2;ratioP2;P2;SDS_P1;SDS_P2;PMS_P1;PMS_P2;Temp;Humidity;BMP_temperature;BMP_pressure;BME280_temperature;BME280_humidity;BME280_pressure;Samples;Min_cycle;Max_cycle;Signal;HPM_P1;HPM_P2
2021/05/02 07:32:56;;;;;;;3.33;1.63;;;10.20;98.10;;;;;;5177154;23;20036;-85
2021/05/02 07:35:23;;;;;;;3.15;1.20;;;10.30;98.20;;;;;;4951155;29;20051;-83
2021/05/02 07:37:49;;;;;;;4.82;1.60;;;10.40;97.70;;;;;;4939001;29;20051;-85
2021/05/02 07:40:15;;;;;;;5.35;1.48;;;10.60;97.30;;;;;;4955853;29;20446;-85
2021/05/02 07:42:42;;;;;;;2.65;1.20;;;10.70;97.10;;;;;;4935457;29;20051;-84
2021/05/02 07:45:09;;;;;;;3.33;1.13;;;10.80;96.90;;;;;;4939033;29;20106;-84
2021/05/02 07:47:35;;;;;;;2.60;1.10;;;11.00;96.50;;;;;;4934101;29;20347;-84
2021/05/02 07:50:04;;;;;;;3.67;1.40;;;11.00;96.20;;;;;;4950713;29;20044;-83
2021/05/02 07:52:30;;;;;;;2.33;0.93;;;11.10;95.50;;;;;;4937682;29;20040;-84
2021/05/02 07:54:56;;;;;;;1.98;0.85;;;11.20;95.40;;;;;;4935020;29;20043;-85
2021/05/02 07:57:23;;;;;;;3.67;1.20;;;11.20;93.80;;;;;;4938141;29;20085;-84
2021/05/02 07:59:53;;;;;;;2.78;0.90;;;11.30;94.10;;;;;;4939122;29;20047;-85
2021/05/02 08:02:22;;;;;;;1.25;0.85;;;11.40;93.70;;;;;;4933493;29;20121;-84
2021/05/02 08:04:50;;;;;;;4.28;0.90;;;11.50;93.50;;;;;;4953120;29;20043;-86
2021/05/02 08:07:16;;;;;;;1.60;0.80;;;11.50;92.20;;;;;;4951153;29;20043;-86
2021/05/02 08:09:42;;;;;;;3.97;1.00;;;11.50;92.20;;;;;;4922149;29;20463;-85
2021/05/02 08:12:09;;;;;;;1.25;0.85;;;11.60;91.90;;;;;;4926096;29;20047;-84
2021/05/02 08:14:37;;;;;;;2.20;0.95;;;11.60;91.70;;;;;;4945330;28;20051;-85
2021/05/02 08:17:04;;;;;;;3.30;1.23;;;11.70;91.70;;;;;;4938441;29;20585;-85
2021/05/02 08:19:32;;;;;;;3.88;1.60;;;11.80;91.00;;;;;;4937111;29;20043;-88
2021/05/02 08:22:02;;;;;;;3.85;1.00;;;11.80;91.10;;;;;;4920779;29;20048;-85
2021/05/02 08:24:29;;;;;;;3.47;1.60;;;11.70;90.20;;;;;;4951692;28;20043;-84
2021/05/02 08:26:56;;;;;;;2.22;1.48;;;11.70;90.20;;;;;;4952733;29;20498;-85
2021/05/02 08:29:23;;;;;;;2.95;1.38;;;11.70;90.30;;;;;;4934062;29;20071;-86
2021/05/02 08:31:49;;;;;;;2.20;1.00;;;11.70;89.20;;;;;;4931217;29;20052;-84
2021/05/02 08:34:16;;;;;;;2.35;0.88;;;11.70;89.30;;;;;;4921097;29;20048;-87
2021/05/02 08:36:42;;;;;;;2.00;1.10;;;11.90;88.20;;;;;;4938497;29;20044;-84
2021/05/02 08:39:09;;;;;;;5.57;1.42;;;11.90;88.20;;;;;;4922421;29;20051;-86
2021/05/02 08:41:35;;;;;;;2.67;0.98;;;12.00;88.00;;;;;;4922731;29;20051;-85
2021/05/02 08:44:02;;;;;;;1.65;0.90;;;12.10;87.80;;;;;;4938970;29;20070;-86
2021/05/02 08:46:29;;;;;;;2.97;1.00;;;12.20;87.00;;;;;;4952788;29;20144;-85
2021/05/02 08:48:56;;;;;;;1.60;0.90;;;12.20;86.20;;;;;;4923647;29;20039;-84
2021/05/02 08:51:23;;;;;;;1.90;0.80;;;12.20;86.10;;;;;;4920706;29;20044;-86
2021/05/02 08:53:50;;;;;;;1.65;0.90;;;12.30;86.20;;;;;;4921174;29;20048;-89
2021/05/02 08:56:17;;;;;;;1.27;0.80;;;12.40;86.10;;;;;;4938403;29;20426;-86
2021/05/02 08:58:43;;;;;;;2.10;0.90;;;12.40;85.60;;;;;;4916627;29;20048;-84
2021/05/02 09:01:10;;;;;;;2.50;0.80;;;12.50;85.20;;;;;;4916019;29;20518;-87
2021/05/02 09:03:44;;;;;;;1.35;0.60;;;12.60;82.40;;;;;;4931396;29;20060;-86
2021/05/02 09:06:22;;;;;;;2.25;0.95;;;12.50;81.20;;;;;;4914067;29;20056;-87
2021/05/02 09:08:52;;;;;;;1.15;0.60;;;12.50;82.80;;;;;;4916248;29;20059;-84
2021/05/02 09:11:30;;;;;;;1.65;0.70;;;12.50;81.10;;;;;;4914734;29;20059;-84
2021/05/02 09:13:57;;;;;;;2.00;0.82;;;12.60;81.60;;;;;;4910818;29;20055;-85
2021/05/02 09:16:24;;;;;;;2.35;0.75;;;12.70;82.20;;;;;;4925777;29;20099;-84
2021/05/02 09:18:58;;;;;;;0.82;0.70;;;12.80;82.60;;;;;;4920980;29;20125;-84
2021/05/02 09:21:29;;;;;;;2.10;0.63;;;13.10;82.20;;;;;;4937027;29;20048;-87
2021/05/02 09:24:00;;;;;;;4.35;0.82;;;13.20;78.80;;;;;;4917316;29;20482;-85
2021/05/02 09:26:31;;;;;;;2.83;1.05;;;13.10;76.70;;;;;;4933504;29;20095;-84
2021/05/02 09:29:05;;;;;;;3.13;0.70;;;13.00;78.60;;;;;;4920610;29;20044;-84
2021/05/02 09:31:40;;;;;;;1.40;0.60;;;13.10;77.50;;;;;;4913956;29;20052;-87
2021/05/02 09:34:14;;;;;;;1.85;0.80;;;13.20;77.30;;;;;;4942231;29;20055;-84
2021/05/02 09:37:02;;;;;;;1.77;0.75;;;13.30;77.30;;;;;;4918137;29;20582;-85
2021/05/02 09:39:47;;;;;;;1.58;0.65;;;13.30;75.60;;;;;;4918127;29;20040;-85
2021/05/02 09:42:21;;;;;;;1.23;0.70;;;13.50;76.50;;;;;;4918193;29;20511;-84
2021/05/02 09:44:59;;;;;;;4.57;0.90;;;13.60;77.70;;;;;;4918476;29;20099;-87
2021/05/02 09:47:26;;;;;;;1.17;0.70;;;13.70;77.00;;;;;;4918925;29;20052;-83
2021/05/02 09:50:20;;;;;;;1.23;0.70;;;13.70;78.00;;;;;;4916148;29;20578;-85
2021/05/02 09:52:53;;;;;;;1.10;0.85;;;13.70;76.80;;;;;;4900886;29;20059;-83
2021/05/02 09:55:20;;;;;;;1.17;0.80;;;13.80;76.90;;;;;;4915148;29;20056;-83
2021/05/02 09:57:53;;;;;;;1.85;0.70;;;13.70;76.70;;;;;;4914539;29;20063;-84
2021/05/02 10:00:35;;;;;;;2.25;0.75;;;13.70;75.60;;;;;;4914319;29;20055;-84
2021/05/02 10:03:17;;;;;;;1.70;0.80;;;13.60;74.90;;;;;;4912915;29;20144;-84
2021/05/02 10:06:04;;;;;;;6.82;0.88;;;13.60;76.00;;;;;;4912868;29;20467;-84
2021/05/02 10:08:39;;;;;;;1.58;0.70;;;13.50;74.80;;;;;;4912727;29;20499;-84
2021/05/02 10:11:07;;;;;;;2.47;0.70;;;13.60;75.50;;;;;;4913279;29;20101;-85
2021/05/02 10:13:35;;;;;;;0.90;0.73;;;13.60;75.70;;;;;;4912920;29;20570;-84
2021/05/02 10:16:03;;;;;;;1.80;0.73;;;13.60;74.80;;;;;;4914347;29;20127;-83
2021/05/02 10:18:30;;;;;;;1.55;0.80;;;13.70;73.70;;;;;;4916987;29;20127;-84
2021/05/02 10:20:57;;;;;;;1.77;0.75;;;13.60;73.80;;;;;;4915111;29;20051;-83
2021/05/02 10:23:24;;;;;;;2.28;0.90;;;13.70;73.70;;;;;;4912389;29;23562;-83
2021/05/02 10:25:56;;;;;;;2.35;0.70;;;13.80;73.30;;;;;;4913989;29;20060;-83
2021/05/02 10:28:30;;;;;;;2.75;0.90;;;13.80;72.10;;;;;;4910926;29;20495;-87
2021/05/02 10:31:05;;;;;;;1.65;0.80;;;13.70;73.30;;;;;;4916698;29;20064;-83
2021/05/02 10:33:37;;;;;;;2.92;0.80;;;13.80;73.50;;;;;;4931797;29;20044;-84
2021/05/02 10:36:07;;;;;;;1.45;0.80;;;13.80;73.10;;;;;;4913176;29;20058;-84
2021/05/02 10:38:56;;;;;;;2.13;0.80;;;14.00;73.40;;;;;;4917623;29;20514;-83
2021/05/02 10:41:38;;;;;;;3.58;1.00;;;14.00;72.60;;;;;;4937068;29;20061;-81
2021/05/02 10:44:05;;;;;;;1.08;0.68;;;14.10;74.00;;;;;;4918212;29;20039;-83
2021/05/02 10:46:43;;;;;;;2.05;0.70;;;14.30;72.90;;;;;;4914973;29;20114;-82
2021/05/02 10:49:11;;;;;;;;;;;14.50;73.00;;;;;;4944335;29;20138;-83
2021/05/02 10:51:38;;;;;;;0.93;0.70;;;14.40;71.70;;;;;;4909652;29;19930;-84
2021/05/02 10:54:05;;;;;;;2.45;0.80;;;14.10;71.90;;;;;;4915605;29;20051;-84
2021/05/02 10:56:58;;;;;;;0.80;0.60;;;14.00;72.90;;;;;;4911703;29;20103;-82
2021/05/02 10:59:27;;;;;;;2.33;0.70;;;13.90;71.70;;;;;;4916953;29;20048;-83
2021/05/02 11:01:54;;;;;;;1.52;0.82;;;13.70;73.00;;;;;;4911344;29;20066;-83
2021/05/02 11:04:41;;;;;;;1.15;0.80;;;13.50;73.50;;;;;;4910771;29;20052;-83
2021/05/02 11:07:08;;;;;;;1.80;0.90;;;13.40;73.90;;;;;;4916041;29;20048;-83
2021/05/02 11:09:54;;;;;;;0.95;0.65;;;13.50;74.30;;;;;;4928666;29;20043;-82
2021/05/02 11:12:28;;;;;;;1.60;0.63;;;13.60;74.70;;;;;;4929244;29;20063;-82
2021/05/02 11:14:54;;;;;;;0.85;0.52;;;13.80;73.50;;;;;;4906909;29;20051;-83
2021/05/02 11:17:23;;;;;;;1.65;0.85;;;13.90;72.90;;;;;;4919946;29;20056;-82
2021/05/02 11:19:52;;;;;;;1.95;0.82;;;14.10;71.90;;;;;;4922883;29;20074;-84
2021/05/02 11:22:20;;;;;;;6.35;2.30;;;14.30;72.00;;;;;;4901303;29;20052;-83
2021/05/02 11:24:51;;;;;;;1.30;0.93;;;14.50;72.40;;;;;;4908742;29;20059;-82
2021/05/02 11:27:40;;;;;;;2.63;1.50;;;14.50;71.60;;;;;;4927520;29;20063;-81
2021/05/02 11:30:11;;;;;;;4.18;2.40;;;14.70;71.80;;;;;;4908477;29;20570;-83
2021/05/02 11:32:43;;;;;;;1.27;0.88;;;14.70;71.30;;;;;;4925117;29;20043;-82
2021/05/02 11:35:20;;;;;;;0.90;0.85;;;14.60;71.60;;;;;;4908056;29;20415;-83
2021/05/02 11:37:51;;;;;;;3.17;1.38;;;14.40;72.00;;;;;;4920763;29;20054;-83
2021/05/02 11:40:18;;;;;;;1.17;0.68;;;14.30;71.60;;;;;;4911039;29;20442;-82
2021/05/02 11:42:57;;;;;;;2.50;0.70;;;14.20;72.90;;;;;;4908428;29;20376;-83
2021/05/02 11:45:31;;;;;;;1.88;0.77;;;14.10;73.00;;;;;;4906813;29;20059;-84
2021/05/02 11:48:01;;;;;;;1.02;0.60;;;14.10;72.70;;;;;;4932657;29;20059;-85
2021/05/02 11:50:28;;;;;;;2.33;0.70;;;14.10;72.70;;;;;;4931814;29;20554;-84
2021/05/02 11:52:55;;;;;;;3.63;0.80;;;14.10;72.70;;;;;;4931752;29;20055;-85
2021/05/02 11:55:29;;;;;;;1.48;0.80;;;14.20;73.20;;;;;;4911398;29;20067;-84
2021/05/02 11:57:57;;;;;;;1.88;0.80;;;14.30;72.90;;;;;;4932337;29;20055;-83
2021/05/02 12:00:44;;;;;;;3.28;0.80;;;14.40;70.70;;;;;;4912988;29;20055;-84
2021/05/02 12:03:12;;;;;;;1.08;0.77;;;14.70;69.90;;;;;;4911471;29;20044;-83
2021/05/02 12:05:53;;;;;;;1.60;0.80;;;14.90;71.20;;;;;;4912260;29;20064;-84
2021/05/02 12:08:24;;;;;;;1.45;0.88;;;14.90;72.40;;;;;;4930769;29;20102;-85
2021/05/02 12:10:55;;;;;;;4.25;1.00;;;14.60;72.50;;;;;;4929115;29;20043;-85
2021/05/02 12:13:39;;;;;;;2.45;1.10;;;14.50;73.60;;;;;;4927543;29;20074;-84
2021/05/02 12:16:10;;;;;;;3.15;0.95;;;14.50;74.60;;;;;;4931673;29;20573;-84
2021/05/02 12:18:42;;;;;;;0.80;0.73;;;14.30;74.00;;;;;;4931003;29;20463;-81
2021/05/02 12:21:19;;;;;;;1.38;0.90;;;14.10;74.80;;;;;;4915845;29;20067;-84
2021/05/02 12:23:46;;;;;;;2.55;1.00;;;14.10;74.80;;;;;;4914344;29;20049;-85
2021/05/02 12:26:14;;;;;;;0.85;0.70;;;14.00;75.50;;;;;;4912472;29;20126;-85
2021/05/02 12:28:41;;;;;;;1.57;0.80;;;13.90;74.90;;;;;;4931256;29;20075;-85
2021/05/02 12:31:11;;;;;;;1.85;1.00;;;13.80;74.70;;;;;;4914321;29;20291;-85
2021/05/02 12:33:39;;;;;;;1.98;1.10;;;13.70;75.00;;;;;;4914090;29;20056;-85
2021/05/02 12:36:08;;;;;;;1.20;1.00;;;13.70;75.10;;;;;;4930104;29;20060;-85
2021/05/02 12:38:36;;;;;;;1.30;0.90;;;13.70;75.20;;;;;;4915529;29;20052;-85
2021/05/02 12:41:03;;;;;;;2.00;0.90;;;13.70;75.50;;;;;;4913709;29;20048;-85
2021/05/02 12:43:33;;;;;;;1.73;0.95;;;13.70;75.30;;;;;;4915126;29;20048;-85
2021/05/02 12:46:00;;;;;;;2.42;1.17;;;13.70;75.40;;;;;;4911837;29;20055;-84
2021/05/02 12:48:35;;;;;;;1.83;1.02;;;13.60;75.60;;;;;;4931121;29;20047;-84
2021/05/02 12:51:02;;;;;;;1.42;1.00;;;13.50;76.60;;;;;;4912752;29;20055;-84
2021/05/02 12:53:41;;;;;;;1.42;0.90;;;13.40;76.90;;;;;;4912597;29;20048;-84
2021/05/02 12:56:09;;;;;;;2.17;1.23;;;13.50;77.80;;;;;;4910046;29;20462;-86
2021/05/02 12:58:41;;;;;;;2.60;0.90;;;13.50;76.50;;;;;;4913308;29;20048;-86
2021/05/02 13:01:17;;;;;;;2.83;0.93;;;13.50;76.50;;;;;;4912951;29;20047;-85
2021/05/02 13:03:58;;;;;;;0.93;0.82;;;13.50;77.00;;;;;;4913208;29;20055;-85
2021/05/02 13:06:26;;;;;;;3.17;1.00;;;13.60;76.80;;;;;;4929174;29;20058;-85
2021/05/02 13:09:01;;;;;;;2.90;0.88;;;13.50;76.60;;;;;;4929763;29;20059;-85
2021/05/02 13:11:29;;;;;;;3.38;1.00;;;13.50;76.80;;;;;;4924312;29;20063;-85
2021/05/02 13:14:18;;;;;;;1.98;0.80;;;13.60;77.00;;;;;;4905482;29;20055;-85
2021/05/02 13:16:55;;;;;;;4.10;1.20;;;13.60;77.10;;;;;;4909636;29;20495;-85
2021/05/02 13:19:26;;;;;;;2.05;0.90;;;13.70;76.80;;;;;;4925524;29;20058;-85
2021/05/02 13:21:53;;;;;;;3.45;0.80;;;13.70;78.10;;;;;;4906824;29;20048;-84
2021/05/02 13:24:20;;;;;;;1.65;0.90;;;13.70;78.40;;;;;;4906345;29;20063;-84
2021/05/02 13:26:47;;;;;;;2.80;0.90;;;13.80;78.10;;;;;;4926903;29;20419;-85
2021/05/02 13:29:16;;;;;;;2.47;1.00;;;13.70;77.90;;;;;;4908489;29;20060;-84
2021/05/02 13:31:54;;;;;;;;;;;13.60;78.50;;;;;;4912932;29;20063;-84
2021/05/02 13:34:22;;;;;;;;;;;13.50;79.30;;;;;;4913415;29;19923;-84
2021/05/02 13:36:50;;;;;;;1.10;1.00;;;13.40;78.50;;;;;;4931218;29;19975;-86
2021/05/02 13:39:25;;;;;;;2.15;1.08;;;13.50;78.70;;;;;;4930382;29;20099;-85
2021/05/02 13:41:57;;;;;;;1.83;1.00;;;13.70;78.70;;;;;;4913350;29;20051;-86
2021/05/02 13:44:26;;;;;;;3.13;1.00;;;13.80;77.60;;;;;;4927714;29;20433;-84
2021/05/02 13:46:54;;;;;;;1.60;1.00;;;13.60;77.70;;;;;;4931948;29;20300;-85
2021/05/02 13:49:21;;;;;;;2.22;1.00;;;13.60;78.50;;;;;;4928876;29;20139;-86
2021/05/02 13:51:49;;;;;;;6.28;0.98;;;13.70;78.80;;;;;;4910887;29;20052;-90
2021/05/02 13:54:19;;;;;;;2.65;1.00;;;13.90;78.50;;;;;;4911274;29;20099;-87
2021/05/02 13:56:55;;;;;;;1.33;1.00;;;14.10;79.00;;;;;;4911007;29;20051;-85
2021/05/02 13:59:22;;;;;;;3.03;1.05;;;14.10;79.60;;;;;;4912718;29;20414;-85
2021/05/02 14:01:48;;;;;;;3.65;0.90;;;14.20;80.10;;;;;;4911105;29;20099;-86
2021/05/02 14:04:15;;;;;;;3.75;0.85;;;14.30;79.40;;;;;;4909133;29;20430;-84
2021/05/02 14:06:46;;;;;;;1.75;0.80;;;14.30;79.00;;;;;;4907780;29;20055;-83
2021/05/02 14:09:12;;;;;;;1.80;1.15;;;14.40;78.30;;;;;;4907471;29;20071;-85
2021/05/02 14:11:39;;;;;;;3.42;0.90;;;14.20;78.40;;;;;;4910003;29;20585;-85
2021/05/02 14:14:05;;;;;;;3.53;1.00;;;14.10;79.30;;;;;;4926279;29;20044;-84
2021/05/02 14:16:31;;;;;;;2.85;1.10;;;13.90;79.10;;;;;;4908074;29;20146;-83
2021/05/02 14:18:58;;;;;;;2.92;1.02;;;13.80;79.30;;;;;;4914252;29;20063;-85
2021/05/02 14:21:24;;;;;;;3.47;1.02;;;13.60;79.10;;;;;;4910745;29;20060;-88
2021/05/02 14:23:51;;;;;;;2.53;0.93;;;13.60;79.60;;;;;;4895973;29;20480;-89
2021/05/02 14:26:17;;;;;;;1.88;0.90;;;13.70;80.70;;;;;;4911078;29;20062;-87
2021/05/02 14:28:43;;;;;;;1.58;0.80;;;13.80;80.20;;;;;;4913197;29;20459;-85
2021/05/02 14:31:10;;;;;;;2.42;0.82;;;14.00;80.80;;;;;;4927906;29;20059;-87
2021/05/02 14:33:36;;;;;;;3.35;0.90;;;14.10;80.60;;;;;;4928918;29;20044;-85
2021/05/02 14:36:03;;;;;;;2.10;0.85;;;14.30;79.70;;;;;;4926730;29;20044;-86
2021/05/02 14:38:30;;;;;;;2.03;0.82;;;14.40;78.30;;;;;;4927620;29;20039;-86
2021/05/02 14:40:58;;;;;;;3.35;1.00;;;14.50;78.40;;;;;;4911681;29;21129;-84
2021/05/02 14:43:28;;;;;;;1.60;0.90;;;14.30;78.10;;;;;;4911147;29;20103;-85
2021/05/02 14:45:54;;;;;;;2.95;1.10;;;14.20;78.60;;;;;;4910228;29;20111;-84
2021/05/02 14:48:20;;;;;;;4.70;1.13;;;14.00;78.60;;;;;;4926540;29;20059;-87
2021/05/02 14:50:47;;;;;;;3.83;1.40;;;13.90;78.80;;;;;;4909188;29;20063;-84
2021/05/02 14:53:13;;;;;;;3.67;1.10;;;13.70;79.20;;;;;;4924356;29;21257;-85
2021/05/02 14:55:39;;;;;;;2.42;1.10;;;13.60;78.80;;;;;;4909376;29;20059;-85
2021/05/02 14:58:06;;;;;;;1.40;0.70;;;13.70;79.20;;;;;;4905532;29;20123;-86
2021/05/02 15:00:35;;;;;;;2.28;1.08;;;13.90;79.30;;;;;;4907674;29;20055;-85
2021/05/02 15:03:03;;;;;;;2.83;0.80;;;14.10;78.70;;;;;;4906576;29;20581;-86
2021/05/02 15:05:29;;;;;;;1.00;0.85;;;14.30;77.80;;;;;;4906235;29;21490;-86
2021/05/02 15:07:56;;;;;;;1.52;0.90;;;14.20;77.00;;;;;;4909586;29;20056;-85
2021/05/02 15:10:22;;;;;;;1.45;1.05;;;14.20;78.10;;;;;;4910280;29;20060;-84
2021/05/02 15:12:49;;;;;;;1.88;1.08;;;14.30;78.90;;;;;;4912846;29;20115;-86
2021/05/02 15:15:18;;;;;;;1.98;1.10;;;14.30;77.70;;;;;;4910388;29;20048;-84
2021/05/02 15:17:45;;;;;;;1.00;0.80;;;14.20;77.70;;;;;;4928558;29;20050;-86
2021/05/02 15:20:15;;;;;;;1.35;1.10;;;14.30;77.80;;;;;;4925398;29;20040;-85
2021/05/02 15:22:43;;;;;;;4.00;0.90;;;14.30;78.10;;;;;;4926019;29;20102;-87
2021/05/02 15:25:11;;;;;;;1.75;0.93;;;14.50;78.90;;;;;;4911417;29;20059;-86
2021/05/02 15:27:39;;;;;;;2.80;1.02;;;14.60;78.50;;;;;;4931371;29;20459;-86
2021/05/02 15:30:10;;;;;;;2.80;1.10;;;14.70;78.60;;;;;;4912861;29;20052;-88
2021/05/02 15:32:37;;;;;;;1.48;0.90;;;14.70;78.00;;;;;;4909288;29;20052;-87
2021/05/02 15:35:05;;;;;;;3.42;1.20;;;14.70;79.00;;;;;;4909498;29;20052;-85
2021/05/02 15:37:32;;;;;;;1.50;1.00;;;14.60;79.00;;;;;;4908797;29;20120;-85
2021/05/02 15:40:01;;;;;;;2.70;1.13;;;14.60;78.80;;;;;;4913561;29;20048;-84
2021/05/02 15:42:30;;;;;;;2.80;1.08;;;14.60;78.00;;;;;;4907515;29;20504;-86
2021/05/02 15:44:57;;;;;;;2.67;1.30;;;14.40;77.60;;;;;;4909879;29;20056;-83
2021/05/02 15:47:24;;;;;;;2.97;1.00;;;14.20;78.40;;;;;;4908688;29;20141;-85
2021/05/02 15:49:50;;;;;;;2.60;1.00;;;14.10;78.30;;;;;;4912070;29;20048;-85
2021/05/02 15:52:20;;;;;;;4.57;1.40;;;14.10;77.70;;;;;;4911248;29;20140;-85
2021/05/02 15:54:47;;;;;;;2.58;1.30;;;14.10;77.80;;;;;;4910547;29;20059;-83
2021/05/02 15:57:14;;;;;;;2.25;1.10;;;14.30;78.30;;;;;;4908482;29;20063;-88
2021/05/02 15:59:40;;;;;;;1.70;1.10;;;14.30;78.30;;;;;;4910960;29;20120;-86
2021/05/02 16:02:07;;;;;;;2.22;1.20;;;14.30;78.30;;;;;;4902240;29;20413;-84
2021/05/02 16:04:34;;;;;;;3.33;1.20;;;14.30;78.00;;;;;;4909636;29;20052;-84
2021/05/02 16:07:01;;;;;;;3.97;1.05;;;14.20;77.60;;;;;;4903822;29;20104;-85
2021/05/02 16:09:27;;;;;;;2.05;1.00;;;14.20;78.00;;;;;;4910788;29;20052;-84
2021/05/02 16:11:55;;;;;;;3.58;1.10;;;14.10;78.40;;;;;;4906506;29;20108;-84
2021/05/02 16:14:22;;;;;;;2.03;1.00;;;14.10;78.60;;;;;;4910705;29;20723;-84
2021/05/02 16:16:49;;;;;;;5.50;1.02;;;14.00;78.60;;;;;;4909742;29;20055;-86
2021/05/02 16:19:15;;;;;;;2.38;1.20;;;14.00;78.30;;;;;;4910400;29;20420;-84
2021/05/02 16:21:42;;;;;;;3.80;1.10;;;13.90;78.30;;;;;;4907888;29;20587;-84
2021/05/02 16:24:09;;;;;;;2.17;1.38;;;13.80;78.50;;;;;;4908463;29;20052;-85
2021/05/02 16:26:35;;;;;;;2.55;1.17;;;13.80;78.60;;;;;;4925309;29;20056;-85
2021/05/02 16:29:03;;;;;;;2.38;1.15;;;13.70;78.50;;;;;;4910607;29;20064;-84
2021/05/02 16:31:29;;;;;;;2.15;1.20;;;13.70;79.00;;;;;;4904799;29;20051;-85
2021/05/02 16:33:55;;;;;;;1.20;0.90;;;13.70;78.90;;;;;;4903949;29;20048;-85
2021/05/02 16:36:22;;;;;;;3.35;1.23;;;13.70;78.90;;;;;;4904429;29;20056;-86
2021/05/02 16:38:48;;;;;;;1.90;1.10;;;13.70;78.80;;;;;;4912846;29;20055;-86
2021/05/02 16:41:15;;;;;;;2.30;1.10;;;13.80;78.80;;;;;;4908936;29;20052;-88
2021/05/02 16:43:41;;;;;;;1.50;0.82;;;13.90;79.00;;;;;;4908777;29;20135;-87
2021/05/02 16:46:08;;;;;;;2.60;1.30;;;14.00;79.00;;;;;;4899352;29;20063;-86
2021/05/02 16:48:35;;;;;;;2.55;1.30;;;13.80;79.20;;;;;;4893738;29;20059;-85
2021/05/02 16:51:01;;;;;;;2.50;1.40;;;13.80;79.50;;;;;;4904668;29;20056;-85
2021/05/02 16:53:28;;;;;;;1.70;1.17;;;13.80;79.20;;;;;;4906828;29;20044;-85
2021/05/02 16:55:54;;;;;;;2.08;1.30;;;13.90;79.20;;;;;;4902451;29;20060;-85
2021/05/02 16:58:27;;;;;;;5.78;1.58;;;13.90;78.90;;;;;;4903688;29;20063;-89
2021/05/02 17:00:57;;;;;;;2.85;1.40;;;13.90;78.90;;;;;;4905513;29;20068;-86
2021/05/02 17:03:26;;;;;;;7.97;1.48;;;13.80;79.00;;;;;;4902431;29;20460;-87
2021/05/02 17:05:52;;;;;;;1.92;0.93;;;13.70;79.30;;;;;;4921888;29;20050;-88
2021/05/02 17:08:19;;;;;;;2.60;1.10;;;13.60;79.40;;;;;;4907801;29;20428;-87
2021/05/02 17:10:48;;;;;;;;;;;13.60;79.30;;;;;;4905118;29;20463;-87
2021/05/02 17:13:16;;;;;;;1.70;0.82;;;13.60;79.60;;;;;;4902879;29;19924;-86
2021/05/02 17:15:43;;;;;;;3.80;1.17;;;13.60;79.60;;;;;;4906429;29;20048;-85
2021/05/02 17:18:10;;;;;;;1.77;1.13;;;13.50;79.90;;;;;;4904524;29;20537;-85
2021/05/02 17:20:38;;;;;;;2.33;1.33;;;13.50;80.10;;;;;;4905715;29;20048;-86
2021/05/02 17:23:05;;;;;;;1.67;0.90;;;13.50;80.30;;;;;;4897173;29;20056;-87
2021/05/02 17:25:32;;;;;;;3.45;1.13;;;13.40;80.50;;;;;;4898117;29;20056;-87
2021/05/02 17:27:58;;;;;;;3.53;1.20;;;13.40;79.90;;;;;;4905204;29;20052;-86
2021/05/02 17:30:25;;;;;;;3.03;1.25;;;13.40;80.00;;;;;;4902946;29;20060;-85
2021/05/02 17:32:52;;;;;;;2.20;1.10;;;13.50;80.00;;;;;;4902360;29;20062;-86
2021/05/02 17:35:18;;;;;;;1.90;1.00;;;13.50;80.00;;;;;;4906086;29;20083;-85
2021/05/02 17:37:46;;;;;;;3.92;2.03;;;13.50;79.70;;;;;;4903134;29;20071;-86
2021/05/02 17:40:13;;;;;;;2.72;1.20;;;13.50;79.50;;;;;;4905483;29;20590;-85
2021/05/02 17:42:41;;;;;;;3.10;1.60;;;13.50;79.30;;;;;;4902949;29;20059;-86
2021/05/02 17:45:09;;;;;;;1.83;0.90;;;13.60;79.10;;;;;;4901895;29;20044;-86
2021/05/02 17:47:37;;;;;;;2.28;1.00;;;13.70;78.80;;;;;;4904620;29;20056;-87
2021/05/02 17:50:07;;;;;;;1.95;1.10;;;14.00;78.20;;;;;;4903176;29;20067;-86
2021/05/02 17:52:36;;;;;;;2.65;0.95;;;14.20;77.40;;;;;;4899684;29;20191;-86
2021/05/02 17:55:03;;;;;;;;;;;14.70;76.80;;;;;;4903399;29;20162;-87
2021/05/02 17:57:30;;;;;;;3.55;1.48;;;14.90;76.30;;;;;;4905656;29;19923;-84
2021/05/02 17:59:57;;;;;;;2.95;2.22;;;15.30;76.00;;;;;;4903776;29;20063;-87
2021/05/02 18:02:23;;;;;;;4.18;1.50;;;15.70;75.10;;;;;;4903015;29;20052;-87
2021/05/02 18:04:50;;;;;;;2.35;1.20;;;16.00;74.40;;;;;;4879819;29;20083;-88
2021/05/02 18:07:17;;;;;;;3.65;1.00;;;16.50;74.00;;;;;;4905653;29;20590;-86
2021/05/02 18:09:44;;;;;;;1.83;1.13;;;16.80;72.60;;;;;;4907117;29;20058;-86
2021/05/02 18:12:13;;;;;;;2.55;1.00;;;16.90;72.40;;;;;;4907537;29;20063;-86
2021/05/02 18:14:42;;;;;;;2.20;0.90;;;17.20;72.20;;;;;;4906597;29;20527;-85
2021/05/02 18:17:08;;;;;;;2.55;1.10;;;17.40;71.50;;;;;;4905850;29;20058;-84
2021/05/02 18:19:36;;;;;;;2.03;1.03;;;17.70;71.50;;;;;;4907567;29;20056;-85
2021/05/02 18:22:03;;;;;;;1.98;1.10;;;17.90;70.70;;;;;;4909428;29;20056;-86
2021/05/02 18:24:30;;;;;;;1.88;1.10;;;18.10;70.60;;;;;;4879935;29;20484;-85
2021/05/02 18:26:57;;;;;;;2.78;1.00;;;18.50;70.50;;;;;;4903236;29;20419;-84
2021/05/02 18:29:24;;;;;;;2.75;1.00;;;18.90;69.20;;;;;;4908264;29;20063;-85
2021/05/02 18:31:51;;;;;;;3.28;1.10;;;18.90;69.10;;;;;;4904816;29;20211;-85
2021/05/02 18:34:17;;;;;;;3.08;1.17;;;18.90;68.90;;;;;;4912537;29;20056;-84
2021/05/02 18:36:46;;;;;;;2.20;1.15;;;18.90;68.40;;;;;;4909815;29;20044;-86
2021/05/02 18:39:15;;;;;;;1.67;1.23;;;18.60;68.40;;;;;;4908079;29;21091;-84
2021/05/02 18:41:42;;;;;;;2.25;1.20;;;18.40;68.90;;;;;;4906478;29;20112;-84
2021/05/02 18:44:08;;;;;;;1.67;1.00;;;18.30;69.30;;;;;;4906528;29;20051;-84
2021/05/02 18:46:35;;;;;;;2.10;1.20;;;18.40;69.50;;;;;;4904693;29;20067;-84
2021/05/02 18:49:06;;;;;;;1.75;1.20;;;18.30;69.30;;;;;;4908231;29;20119;-85
2021/05/02 18:51:36;;;;;;;2.97;1.30;;;18.30;69.60;;;;;;4903926;29;20059;-85
2021/05/02 18:54:04;;;;;;;2.17;1.15;;;18.20;69.70;;;;;;4906686;29;20052;-85
2021/05/02 18:56:31;;;;;;;2.50;1.20;;;18.20;69.70;;;;;;4905393;29;20051;-84
2021/05/02 18:59:00;;;;;;;2.80;1.48;;;18.00;69.90;;;;;;4910724;29;20119;-85
2021/05/02 19:01:26;;;;;;;2.58;1.42;;;17.50;70.20;;;;;;4906165;29;20048;-87
2021/05/02 19:03:53;;;;;;;1.65;1.25;;;16.90;71.10;;;;;;4913763;29;20068;-83
2021/05/02 19:06:23;;;;;;;3.20;1.42;;;16.40;72.00;;;;;;4907654;29;20063;-86
2021/05/02 19:08:49;;;;;;;3.35;1.80;;;15.90;73.00;;;;;;4912697;29;20128;-86
2021/05/02 19:11:17;;;;;;;2.95;1.60;;;15.40;74.20;;;;;;4909488;29;20055;-85
2021/05/02 19:13:44;;;;;;;6.25;2.00;;;14.90;75.10;;;;;;4908505;29;20507;-86
2021/05/02 19:16:10;;;;;;;3.00;1.92;;;14.50;76.10;;;;;;4913511;29;20064;-87
2021/05/02 19:18:37;;;;;;;3.47;2.22;;;14.00;77.50;;;;;;4909745;29;20056;-85
2021/05/02 19:21:04;;;;;;;5.18;2.45;;;13.60;78.70;;;;;;4909161;29;20072;-85
2021/05/02 19:23:31;;;;;;;2.25;1.70;;;13.30;79.30;;;;;;4910114;29;20618;-84
2021/05/02 19:25:57;;;;;;;3.40;2.20;;;13.00;80.10;;;;;;4911986;29;20055;-86
2021/05/02 19:28:26;;;;;;;2.65;1.73;;;12.60;80.90;;;;;;4910739;29;20067;-84
2021/05/02 19:30:52;;;;;;;3.83;2.05;;;12.40;81.60;;;;;;4910069;29;20056;-85
2021/05/02 19:33:37;;;;;;;2.67;1.67;;;12.20;82.50;;;;;;4910856;29;20380;-85
2021/05/02 19:36:04;;;;;;;3.58;1.85;;;12.00;83.00;;;;;;4906809;29;20112;-86
2021/05/02 19:38:34;;;;;;;2.97;2.15;;;11.80;83.60;;;;;;4910116;29;20107;-84
2021/05/02 19:41:01;;;;;;;2.70;1.85;;;11.60;84.10;;;;;;4903499;29;20048;-86
2021/05/02 19:43:27;;;;;;;3.88;2.20;;;11.50;85.00;;;;;;4910145;29;20060;-84
2021/05/02 19:45:53;;;;;;;3.00;2.17;;;11.30;85.30;;;;;;4912680;29;20064;-88
2021/05/02 19:48:20;;;;;;;4.90;2.25;;;11.20;86.10;;;;;;4912022;29;20053;-87
2021/05/02 19:50:47;;;;;;;5.30;2.35;;;11.10;86.50;;;;;;4915111;29;20051;-89
2021/05/02 19:53:15;;;;;;;4.22;2.72;;;11.00;86.90;;;;;;4908793;29;20063;-89
2021/05/02 19:55:43;;;;;;;4.03;2.60;;;10.80;87.50;;;;;;4916770;29;20051;-87
2021/05/02 19:58:11;;;;;;;4.75;2.80;;;10.70;88.10;;;;;;4910858;29;20052;-88
2021/05/02 20:00:42;;;;;;;3.05;2.60;;;10.60;88.40;;;;;;4911130;29;20505;-83
2021/05/02 20:03:10;;;;;;;2.75;2.28;;;10.50;89.00;;;;;;4907326;29;20055;-83
2021/05/02 20:05:39;;;;;;;3.08;2.58;;;10.40;89.00;;;;;;4906422;29;20140;-83
2021/05/02 20:08:09;;;;;;;4.15;2.67;;;10.30;89.20;;;;;;4901199;29;20115;-84
2021/05/02 20:10:37;;;;;;;3.67;2.55;;;10.30;89.60;;;;;;4912858;29;20126;-84
2021/05/02 20:13:05;;;;;;;2.72;2.45;;;10.20;90.00;;;;;;4907686;29;20520;-84
2021/05/02 20:15:32;;;;;;;6.20;3.22;;;10.10;90.20;;;;;;4909080;29;20052;-83
2021/05/02 20:17:59;;;;;;;4.20;3.08;;;10.10;90.40;;;;;;4914914;29;20427;-84
2021/05/02 20:20:25;;;;;;;3.28;2.83;;;9.90;90.70;;;;;;4908799;29;20060;-83
2021/05/02 20:22:52;;;;;;;3.90;2.60;;;9.80;91.00;;;;;;4910745;29;20130;-84
2021/05/02 20:25:19;;;;;;;4.53;2.80;;;9.70;91.10;;;;;;4910919;29;20056;-83
2021/05/02 20:27:45;;;;;;;3.78;3.33;;;9.60;91.30;;;;;;4909009;29;20146;-83
2021/05/02 20:30:13;;;;;;;4.95;2.90;;;9.50;91.50;;;;;;4907484;29;20104;-83